createdAt,value
2022-11-15T00:00:21.396Z,10.00
2022-11-15T00:03:09.009Z,10.10
2022-11-15T00:05:58.104Z,8.67
2022-11-15T00:08:46.087Z,11.83
2022-11-15T00:11:33.701Z,7.83
2022-11-15T00:14:21.274Z,7.13
2022-11-15T00:17:08.863Z,12.37
2022-11-15T00:19:56.833Z,9.80
2022-11-15T00:22:45.652Z,6.97
2022-11-15T00:25:33.733Z,14.00
2022-11-15T00:28:21.294Z,11.07
2022-11-15T00:31:09.878Z,8.70
2022-11-15T00:33:57.535Z,11.43
2022-11-15T00:36:45.045Z,11.13
2022-11-15T00:39:34.119Z,7.57
2022-11-15T00:42:22.357Z,10.10
2022-11-15T00:45:10.934Z,9.90
2022-11-15T00:47:58.934Z,9.03
2022-11-15T00:50:46.832Z,8.80
2022-11-15T00:53:34.831Z,12.33
2022-11-15T00:56:23.852Z,6.27
2022-11-15T00:59:11.595Z,7.27
2022-11-15T01:01:59.284Z,7.43
2022-11-15T01:04:47.295Z,9.33
2022-11-15T01:07:35.023Z,14.87
2022-11-15T01:10:22.998Z,9.97
2022-11-15T01:13:13.699Z,5.77
2022-11-15T01:16:01.387Z,10.90
2022-11-15T01:18:49.023Z,11.43
2022-11-15T01:21:36.734Z,11.40
2022-11-15T01:24:24.554Z,8.57
2022-11-15T01:27:12.418Z,10.20
2022-11-15T01:30:01.321Z,6.53
2022-11-15T01:32:49.179Z,9.20
2022-11-15T01:35:36.769Z,7.83
2022-11-15T01:38:24.851Z,9.00
2022-11-15T01:41:17.941Z,9.80
2022-11-15T01:44:24.294Z,12.20
2022-11-15T01:47:15.511Z,13.40
2022-11-15T01:50:05.470Z,10.50
2022-11-15T01:52:53.230Z,9.30
2022-11-15T01:55:40.931Z,10.67
2022-11-15T01:58:28.404Z,11.80
2022-11-15T02:01:16.481Z,14.63
2022-11-15T02:04:09.947Z,7.53
2022-11-15T02:06:57.892Z,15.13
2022-11-15T02:09:46.499Z,10.10
2022-11-15T02:12:34.753Z,10.27
2022-11-15T02:15:22.396Z,8.93
2022-11-15T02:18:14.736Z,9.83
2022-11-15T02:21:10.045Z,7.27
2022-11-15T02:24:11.014Z,12.07
2022-11-15T02:27:19.564Z,10.77
2022-11-15T02:30:19.374Z,7.87
2022-11-15T02:33:11.412Z,7.70
2022-11-15T02:36:01.937Z,10.90
2022-11-15T02:38:54.457Z,7.57
2022-11-15T02:41:45.096Z,10.83
2022-11-15T02:44:34.833Z,8.60
2022-11-15T02:47:25.039Z,10.27
2022-11-15T02:50:15.053Z,5.90
2022-11-15T02:53:02.885Z,9.33
2022-11-15T02:55:51.643Z,7.90
2022-11-15T02:58:49.870Z,10.90
2022-11-15T03:01:41.776Z,7.30
2022-11-15T03:04:33.850Z,7.90
2022-11-15T03:07:23.094Z,8.10
2022-11-15T03:10:13.640Z,15.13
2022-11-15T03:13:03.839Z,6.00
2022-11-15T03:15:53.910Z,7.00
2022-11-15T03:18:43.839Z,8.37
2022-11-15T03:21:33.558Z,11.90
2022-11-15T03:24:26.024Z,12.13
2022-11-15T03:27:16.853Z,6.93
2022-11-15T03:30:07.303Z,9.50
2022-11-15T03:32:57.552Z,7.13
2022-11-15T03:35:47.731Z,5.77
2022-11-15T03:38:37.349Z,6.80
2022-11-15T03:41:26.600Z,5.27
2022-11-15T03:44:17.226Z,15.53
2022-11-15T03:47:07.026Z,11.00
2022-11-15T03:49:56.324Z,9.70
2022-11-15T03:52:44.323Z,8.30
2022-11-15T03:55:34.988Z,6.60
2022-11-15T03:58:22.658Z,5.30
2022-11-15T04:01:10.819Z,8.30
2022-11-15T04:03:58.416Z,6.60
2022-11-15T04:06:46.151Z,6.97
2022-11-15T04:09:33.904Z,5.30
2022-11-15T04:12:32.002Z,5.37
2022-11-15T04:15:21.170Z,6.20
2022-11-15T04:18:08.915Z,8.10
2022-11-15T04:21:14.019Z,8.20
2022-11-15T04:24:17.111Z,9.60
2022-11-15T04:27:05.002Z,7.93
2022-11-15T04:29:54.050Z,17.50
2022-11-15T04:32:41.982Z,6.37
2022-11-15T04:35:30.596Z,7.50
2022-11-15T04:38:18.267Z,9.57
2022-11-15T04:41:06.209Z,10.57
2022-11-15T04:43:53.808Z,8.47
2022-11-15T04:46:43.113Z,8.37
2022-11-15T04:49:31.080Z,10.00
2022-11-15T04:52:19.071Z,9.20
2022-11-15T04:55:08.388Z,6.50
2022-11-15T04:58:02.545Z,7.97
2022-11-15T05:00:50.288Z,9.80
2022-11-15T05:03:56.729Z,7.53
2022-11-15T05:06:44.860Z,11.40
2022-11-15T05:09:32.883Z,7.60
2022-11-15T05:12:20.344Z,9.00
2022-11-15T05:15:08.390Z,7.57
2022-11-15T05:18:01.243Z,7.70
2022-11-15T05:20:50.505Z,9.10
2022-11-15T05:23:38.096Z,9.53
2022-11-15T05:26:26.158Z,7.93
2022-11-15T05:29:14.075Z,14.30
2022-11-15T05:32:01.623Z,9.20
2022-11-15T05:34:49.466Z,9.80
2022-11-15T05:37:39.077Z,12.03
2022-11-15T05:40:27.016Z,9.60
2022-11-15T05:43:15.200Z,6.90
2022-11-15T05:46:03.478Z,15.20
2022-11-15T05:48:52.256Z,12.67
2022-11-15T05:51:39.693Z,12.70
2022-11-15T05:54:29.329Z,9.13
2022-11-15T05:57:17.199Z,9.67
2022-11-15T06:00:06.112Z,8.83
2022-11-15T06:02:53.982Z,9.20
2022-11-15T06:05:41.598Z,11.43
2022-11-15T06:08:29.198Z,10.93
2022-11-15T06:11:18.264Z,8.80
2022-11-15T06:14:06.176Z,14.27
2022-11-15T06:16:53.945Z,16.60
2022-11-15T06:19:41.675Z,7.40
2022-11-15T06:22:29.439Z,18.90
2022-11-15T06:25:17.444Z,6.67
2022-11-15T06:28:06.733Z,10.53
2022-11-15T06:30:54.206Z,16.00
2022-11-15T06:33:42.275Z,9.70
2022-11-15T06:36:29.904Z,12.50
2022-11-15T06:39:17.666Z,13.83
2022-11-15T06:42:05.701Z,27.70
2022-11-15T06:44:54.712Z,22.30
2022-11-15T06:47:48.113Z,29.50
2022-11-15T06:50:35.830Z,26.57
2022-11-15T06:53:23.705Z,13.50
2022-11-15T06:56:11.778Z,15.47
2022-11-15T06:58:59.707Z,14.80
2022-11-15T07:01:49.064Z,22.30
2022-11-15T07:04:38.283Z,15.43
2022-11-15T07:07:26.316Z,15.17
2022-11-15T07:10:14.247Z,12.60
2022-11-15T07:13:01.864Z,14.17
2022-11-15T07:15:49.486Z,18.83
2022-11-15T07:18:38.816Z,15.83
2022-11-15T07:21:27.831Z,11.20
2022-11-15T07:24:15.883Z,12.20
2022-11-15T07:27:03.491Z,19.10
2022-11-15T07:29:51.111Z,19.90
2022-11-15T07:32:38.773Z,15.83
2022-11-15T07:35:28.619Z,16.00
2022-11-15T07:38:16.869Z,17.50
2022-11-15T07:41:05.669Z,23.13
2022-11-15T07:43:54.707Z,13.33
2022-11-15T07:46:42.637Z,32.70
2022-11-15T07:49:30.415Z,26.43
2022-11-15T07:52:19.525Z,20.53
2022-11-15T07:55:07.696Z,28.07
2022-11-15T07:57:55.460Z,25.47
2022-11-15T08:00:43.345Z,31.53
2022-11-15T08:03:31.365Z,21.90
2022-11-15T08:06:19.445Z,25.13
2022-11-15T08:09:08.664Z,32.13
2022-11-15T08:11:56.514Z,25.00
2022-11-15T08:14:44.304Z,35.27
2022-11-15T08:17:34.030Z,41.57
2022-11-15T08:20:21.916Z,43.77
2022-11-15T08:23:09.995Z,29.63
2022-11-15T08:26:03.949Z,40.13
2022-11-15T08:28:51.627Z,25.17
2022-11-15T08:31:39.920Z,21.90
2022-11-15T08:34:27.986Z,33.73
2022-11-15T08:37:15.819Z,35.23
2022-11-15T08:40:03.470Z,29.20
2022-11-15T08:42:53.097Z,30.53
2022-11-15T08:45:40.763Z,26.67
2022-11-15T08:48:28.861Z,53.17
2022-11-15T08:51:16.896Z,23.33
2022-11-15T08:54:04.869Z,26.27
2022-11-15T08:56:52.821Z,20.37
2022-11-15T08:59:42.213Z,27.90
2022-11-15T09:02:30.034Z,28.13
2022-11-15T09:05:17.926Z,19.77
2022-11-15T09:08:19.169Z,24.37
2022-11-15T09:11:13.990Z,19.70
2022-11-15T09:14:01.805Z,16.87
2022-11-15T09:16:50.900Z,11.93
2022-11-15T09:19:39.245Z,22.83
2022-11-15T09:22:27.042Z,33.10
2022-11-15T09:25:14.742Z,24.37
2022-11-15T09:28:02.533Z,21.03
2022-11-15T09:30:50.033Z,27.60
2022-11-15T09:33:39.193Z,12.90
2022-11-15T09:36:27.193Z,12.83
2022-11-15T09:39:15.113Z,23.80
2022-11-15T09:42:21.468Z,10.57
2022-11-15T09:45:16.255Z,16.17
2022-11-15T09:48:25.020Z,19.00
2022-11-15T09:51:17.716Z,9.70
2022-11-15T09:56:44.009Z,19.13
2022-11-15T09:59:24.929Z,15.57
2022-11-15T10:01:59.946Z,6.37
2022-11-15T10:04:29.053Z,8.53
2022-11-15T10:07:01.904Z,6.20
2022-11-15T10:09:35.221Z,6.50
2022-11-15T10:12:04.405Z,7.20
2022-11-15T10:14:34.138Z,10.03
2022-11-15T10:17:22.214Z,10.73
2022-11-15T10:20:02.404Z,6.23
2022-11-15T10:22:38.622Z,3.27
2022-11-15T10:25:19.920Z,10.03
2022-11-15T10:27:53.816Z,4.40
2022-11-15T10:30:23.883Z,15.73
2022-11-15T10:32:53.040Z,11.33
2022-11-15T10:35:23.889Z,5.60
2022-11-15T10:37:54.566Z,11.43
2022-11-15T10:40:24.645Z,6.97
2022-11-15T10:43:08.181Z,5.90
2022-11-15T10:45:37.771Z,7.73
2022-11-15T10:48:27.765Z,7.10
2022-11-15T10:50:57.573Z,10.90
2022-11-15T10:53:31.763Z,16.77
2022-11-15T10:56:02.871Z,19.27
2022-11-15T10:58:37.430Z,19.13
2022-11-15T11:01:17.252Z,15.50
2022-11-15T11:03:47.154Z,8.07
2022-11-15T11:06:18.028Z,4.20
2022-11-15T11:08:59.730Z,2.83
2022-11-15T11:11:46.684Z,5.30
2022-11-15T11:14:16.541Z,3.60
2022-11-15T11:16:47.964Z,4.83
2022-11-15T11:19:35.240Z,15.60
2022-11-15T11:22:06.456Z,7.90
2022-11-15T11:24:39.767Z,9.07
2022-11-15T11:27:26.034Z,8.03
2022-11-15T11:30:04.289Z,4.20
2022-11-15T11:32:39.865Z,6.33
2022-11-15T11:35:14.858Z,4.30
2022-11-15T11:37:48.964Z,4.00
2022-11-15T11:40:27.763Z,4.93
2022-11-15T11:43:00.626Z,5.13
2022-11-15T11:45:35.577Z,4.90
2022-11-15T11:48:10.851Z,4.77
2022-11-15T11:50:40.998Z,5.70
2022-11-15T11:53:14.432Z,9.73
2022-11-15T11:55:46.631Z,3.37
2022-11-15T11:58:17.575Z,5.73
2022-11-15T12:00:53.128Z,3.67
2022-11-15T12:03:25.073Z,4.37
2022-11-15T12:05:57.312Z,3.50
2022-11-15T12:08:31.795Z,1.67
2022-11-15T12:11:04.443Z,4.17
2022-11-15T12:13:37.882Z,2.37
2022-11-15T12:16:10.874Z,3.00
2022-11-15T12:18:40.724Z,3.57
2022-11-15T12:21:10.949Z,2.83
2022-11-15T12:23:42.898Z,5.00
2022-11-15T12:26:15.274Z,1.10
2022-11-15T12:29:05.980Z,3.87
2022-11-15T12:31:39.644Z,2.10
2022-11-15T12:34:17.272Z,5.07
2022-11-15T12:36:47.360Z,1.50
2022-11-15T12:39:17.197Z,3.20
2022-11-15T12:42:07.650Z,1.60
2022-11-15T12:44:55.703Z,4.80
2022-11-15T12:47:26.089Z,7.00
2022-11-15T12:49:55.967Z,1.77
2022-11-15T12:52:25.264Z,1.63
2022-11-15T12:55:03.119Z,3.63
2022-11-15T12:57:37.816Z,2.40
2022-11-15T13:00:28.861Z,1.20
2022-11-15T13:03:16.455Z,3.13
2022-11-15T13:05:59.052Z,9.00
2022-11-15T13:08:41.504Z,3.73
2022-11-15T13:11:25.725Z,1.50
2022-11-15T13:13:56.233Z,3.30
2022-11-15T13:16:25.840Z,3.73
2022-11-15T13:18:56.394Z,1.33
2022-11-15T13:21:44.088Z,2.67
2022-11-15T13:24:15.598Z,1.90
2022-11-15T13:26:45.025Z,2.97
2022-11-15T13:29:22.907Z,6.73
2022-11-15T13:31:52.159Z,7.47
2022-11-15T13:37:34.601Z,2.20
2022-11-15T13:40:19.051Z,2.20
2022-11-15T13:42:48.494Z,1.97
2022-11-15T13:45:21.127Z,1.63
2022-11-15T13:47:54.720Z,2.70
2022-11-15T13:50:25.607Z,1.37
2022-11-15T13:52:55.777Z,2.53
2022-11-15T13:55:25.652Z,1.20
2022-11-15T13:57:56.761Z,3.50
2022-11-15T14:00:33.513Z,2.30
2022-11-15T14:03:09.181Z,12.97
2022-11-15T14:05:39.586Z,18.27
2022-11-15T14:08:24.862Z,14.30
2022-11-15T14:11:09.084Z,13.23
2022-11-15T14:13:39.214Z,14.47
2022-11-15T14:16:22.256Z,12.90
2022-11-15T14:18:52.252Z,17.10
2022-11-15T14:21:22.337Z,19.00
2022-11-15T14:23:51.804Z,11.40
2022-11-15T14:26:38.505Z,13.77
2022-11-15T14:29:22.640Z,23.67
2022-11-15T14:31:53.292Z,14.93
2022-11-15T14:34:23.423Z,21.20
2022-11-15T14:36:52.696Z,15.40
2022-11-15T14:39:22.661Z,12.07
2022-11-15T14:41:51.805Z,10.27
2022-11-15T14:44:22.854Z,13.60
2022-11-15T14:46:53.432Z,14.00
2022-11-15T14:49:22.571Z,15.27
2022-11-15T14:51:52.125Z,12.47
2022-11-15T14:54:22.436Z,8.50
2022-11-15T14:56:51.668Z,17.47
2022-11-15T14:59:20.941Z,11.83
2022-11-15T15:01:49.983Z,17.40
2022-11-15T15:04:20.477Z,11.40
2022-11-15T15:06:49.851Z,20.77
2022-11-15T15:09:19.064Z,18.87
2022-11-15T15:11:48.231Z,12.30
2022-11-15T15:14:17.537Z,13.77
2022-11-15T15:16:46.697Z,16.60
2022-11-15T15:19:15.952Z,9.73
2022-11-15T15:21:46.463Z,8.93
2022-11-15T15:24:17.018Z,8.47
2022-11-15T15:26:45.998Z,10.70
2022-11-15T15:29:15.046Z,13.67
2022-11-15T15:31:44.340Z,14.00
2022-11-15T15:34:16.856Z,11.10
2022-11-15T15:36:47.987Z,14.23
2022-11-15T15:39:17.447Z,15.13
2022-11-15T15:41:46.614Z,11.33
2022-11-15T15:44:15.848Z,12.97
2022-11-15T15:46:44.950Z,15.50
2022-11-15T15:49:14.131Z,11.73
2022-11-15T15:51:43.279Z,18.47
2022-11-15T15:54:14.302Z,11.13
2022-11-15T15:56:43.493Z,10.57
2022-11-15T15:59:12.639Z,12.20
2022-11-15T16:01:41.956Z,10.73
2022-11-15T16:04:11.166Z,8.70
2022-11-15T16:06:43.468Z,9.33
2022-11-15T16:09:16.930Z,13.00
2022-11-15T16:11:47.633Z,11.00
2022-11-15T16:14:16.971Z,18.90
2022-11-15T16:16:46.588Z,10.43
2022-11-15T16:19:15.898Z,14.07
2022-11-15T16:21:45.144Z,9.43
2022-11-15T16:24:15.797Z,9.30
2022-11-15T16:26:45.060Z,7.50
2022-11-15T16:29:14.216Z,18.73
2022-11-15T16:31:43.537Z,12.93
2022-11-15T16:34:12.692Z,8.97
2022-11-15T16:36:42.021Z,22.47
2022-11-15T16:39:14.283Z,12.50
2022-11-15T16:41:47.833Z,9.63
2022-11-15T16:44:17.027Z,11.50
2022-11-15T16:46:51.944Z,9.23
2022-11-15T16:49:22.006Z,6.97
2022-11-15T16:51:52.293Z,13.00
2022-11-15T16:54:21.948Z,10.57
2022-11-15T16:56:52.483Z,25.63
2022-11-15T16:59:21.625Z,12.37
2022-11-15T17:01:53.682Z,16.97
2022-11-15T17:04:22.915Z,13.87
2022-11-15T17:06:52.099Z,13.13
2022-11-15T17:09:24.560Z,19.87
2022-11-15T17:11:55.169Z,15.27
2022-11-15T17:14:24.485Z,13.27
2022-11-15T17:16:54.554Z,6.20
2022-11-15T17:19:23.868Z,5.40
2022-11-15T17:21:54.022Z,14.30
2022-11-15T17:24:23.427Z,15.30
2022-11-15T17:26:52.518Z,11.10
2022-11-15T17:29:23.086Z,9.43
2022-11-15T17:31:52.385Z,9.63
2022-11-15T17:34:21.612Z,16.20
2022-11-15T17:36:50.691Z,6.70
2022-11-15T17:39:21.109Z,15.03
2022-11-15T17:41:50.533Z,5.80
2022-11-15T17:44:19.666Z,9.10
2022-11-15T17:46:50.251Z,8.00
2022-11-15T17:49:19.526Z,9.10
2022-11-15T17:51:50.085Z,7.63
2022-11-15T17:54:19.736Z,8.03
2022-11-15T17:56:49.026Z,6.20
2022-11-15T17:59:21.413Z,7.97
2022-11-15T18:01:54.094Z,9.93
2022-11-15T18:04:28.371Z,8.53
2022-11-15T18:06:57.828Z,10.00
2022-11-15T18:09:27.156Z,22.57
2022-11-15T18:11:56.292Z,10.87
2022-11-15T18:14:26.351Z,8.70
2022-11-15T18:16:57.014Z,17.17
2022-11-15T18:19:26.184Z,12.63
2022-11-15T18:21:59.301Z,5.53
2022-11-15T18:24:29.525Z,11.30
2022-11-15T18:26:58.685Z,14.63
2022-11-15T18:29:28.183Z,11.53
2022-11-15T18:31:59.139Z,11.83
2022-11-15T18:34:32.412Z,14.10
2022-11-15T18:37:02.964Z,7.43
2022-11-15T18:39:32.418Z,6.80
2022-11-15T18:42:01.922Z,2.60
2022-11-15T18:44:31.359Z,3.80
2022-11-15T18:47:01.950Z,11.40
2022-11-15T18:49:31.111Z,6.00
2022-11-15T18:52:00.319Z,5.80
2022-11-15T18:54:31.498Z,6.30
2022-11-15T18:57:01.918Z,8.17
2022-11-15T18:59:31.470Z,6.33
2022-11-15T19:02:02.056Z,7.50
2022-11-15T19:04:31.348Z,8.00
2022-11-15T19:07:00.486Z,3.23
2022-11-15T19:09:32.944Z,4.73
2022-11-15T19:12:02.337Z,9.70
2022-11-15T19:14:33.832Z,6.00
2022-11-15T19:17:04.545Z,4.07
2022-11-15T19:19:33.794Z,3.43
2022-11-15T19:22:03.167Z,4.90
2022-11-15T19:24:32.758Z,5.53
2022-11-15T19:27:01.863Z,3.33
2022-11-15T19:29:31.005Z,4.40
2022-11-15T19:32:00.810Z,5.60
2022-11-15T19:34:31.403Z,5.03
2022-11-15T19:37:00.466Z,4.23
2022-11-15T19:39:29.562Z,4.50
2022-11-15T19:41:58.727Z,4.17
2022-11-15T19:44:27.858Z,4.57
2022-11-15T19:46:57.256Z,17.77
2022-11-15T19:49:26.323Z,3.50
2022-11-15T19:51:56.777Z,5.23
2022-11-15T19:54:26.051Z,4.20
2022-11-15T19:56:55.080Z,3.23
2022-11-15T19:59:24.393Z,3.67
2022-11-15T20:01:53.767Z,8.80
2022-11-15T20:04:22.975Z,4.00
2022-11-15T20:06:52.043Z,7.67
2022-11-15T20:09:22.519Z,6.30
2022-11-15T20:11:51.648Z,5.10
2022-11-15T20:14:20.778Z,4.10
2022-11-15T20:16:54.083Z,5.30
2022-11-15T20:19:23.984Z,11.80
2022-11-15T20:21:53.025Z,3.70
2022-11-15T20:24:23.647Z,6.70
2022-11-15T20:26:52.907Z,3.03
2022-11-15T20:29:22.139Z,6.93
2022-11-15T20:31:51.269Z,5.47
2022-11-15T20:34:20.415Z,5.10
2022-11-15T20:36:50.124Z,5.23
2022-11-15T20:39:19.433Z,5.87
2022-11-15T20:41:50.220Z,10.93
2022-11-15T20:44:19.657Z,5.80
2022-11-15T20:46:48.866Z,7.20
2022-11-15T20:49:18.063Z,7.60
2022-11-15T20:51:47.245Z,7.43
2022-11-15T20:54:16.597Z,3.90
2022-11-15T20:56:45.586Z,4.70
2022-11-15T20:59:16.238Z,4.80
2022-11-15T21:01:47.820Z,5.50
2022-11-15T21:04:17.171Z,5.47
2022-11-15T21:06:48.816Z,5.83
2022-11-15T21:09:36.199Z,3.33
2022-11-15T21:12:14.732Z,9.50
2022-11-15T21:14:46.774Z,7.80
2022-11-15T21:17:16.176Z,3.23
2022-11-15T21:19:45.579Z,6.63
2022-11-15T21:22:15.352Z,6.77
2022-11-15T21:24:44.441Z,14.30
2022-11-15T21:27:13.579Z,9.73
2022-11-15T21:29:45.866Z,6.63
2022-11-15T21:32:16.709Z,19.40
2022-11-15T21:34:45.797Z,5.20
2022-11-15T21:37:15.256Z,5.67
2022-11-15T21:39:44.384Z,3.23
2022-11-15T21:42:13.569Z,10.57
2022-11-15T21:44:42.741Z,5.10
2022-11-15T21:47:11.842Z,6.27
2022-11-15T21:49:42.367Z,5.50
2022-11-15T21:52:11.771Z,6.77
2022-11-15T21:54:41.713Z,6.17
2022-11-15T21:57:10.930Z,6.03
2022-11-15T22:00:00.197Z,5.47
2022-11-15T22:02:28.830Z,6.47
2022-11-15T22:04:59.406Z,4.17
2022-11-15T22:07:28.670Z,4.20
2022-11-15T22:09:59.088Z,5.10
2022-11-15T22:12:29.783Z,3.70
2022-11-15T22:14:59.137Z,5.43
2022-11-15T22:17:48.355Z,6.80
2022-11-15T22:23:09.151Z,7.53
2022-11-15T22:25:38.252Z,6.20
2022-11-15T22:28:07.655Z,7.57
2022-11-15T22:30:36.902Z,6.67
2022-11-15T22:33:06.654Z,4.20
2022-11-15T22:35:41.438Z,6.83
2022-11-15T22:38:11.449Z,3.10
2022-11-15T22:40:40.649Z,4.20
2022-11-15T22:43:09.802Z,7.00
2022-11-15T22:45:39.021Z,3.73
2022-11-15T22:48:08.143Z,4.30
2022-11-15T22:50:38.628Z,4.27
2022-11-15T22:53:07.919Z,2.93
2022-11-15T22:55:37.088Z,2.70
2022-11-15T22:58:06.219Z,4.40
2022-11-15T23:00:35.418Z,3.63
2022-11-15T23:03:05.093Z,3.43
2022-11-15T23:05:34.264Z,2.60
2022-11-15T23:08:04.944Z,2.33
2022-11-15T23:10:51.997Z,2.03
2022-11-15T23:13:21.361Z,3.13
2022-11-15T23:16:08.785Z,2.50
2022-11-15T23:18:38.502Z,2.50
2022-11-15T23:21:11.478Z,4.00
2022-11-15T23:23:41.236Z,3.10
2022-11-15T23:26:11.530Z,9.73
2022-11-15T23:28:40.700Z,3.30
2022-11-15T23:31:27.629Z,2.60
2022-11-15T23:33:59.571Z,6.10
2022-11-15T23:36:29.657Z,2.27
2022-11-15T23:39:00.334Z,2.20
2022-11-15T23:41:29.709Z,2.47
2022-11-15T23:43:58.956Z,3.87
2022-11-15T23:46:28.306Z,2.43
2022-11-15T23:48:57.407Z,5.00
2022-11-15T23:51:26.935Z,3.20
2022-11-15T23:53:56.018Z,9.50
2022-11-15T23:56:26.665Z,3.60
2022-11-15T23:58:55.746Z,4.20
